sensor_id;sensor_type;location;lat;lon;timestamp;P1;durP1;ratioP1;P2;durP2;ratioP2
79487;SDS011;68949;53.176;18.088;2023-04-28T00:00:32;27.20;;;10.30;;
79487;SDS011;68949;53.176;18.088;2023-04-28T00:03:16;22.00;;;9.40;;
79487;SDS011;68949;53.176;18.088;2023-04-28T00:05:43;23.60;;;9.80;;
79487;SDS011;68949;53.176;18.088;2023-04-28T00:08:10;23.20;;;9.70;;
79487;SDS011;68949;53.176;18.088;2023-04-28T00:10:36;26.00;;;9.50;;
79487;SDS011;68949;53.176;18.088;2023-04-28T00:13:03;22.20;;;10.20;;
79487;SDS011;68949;53.176;18.088;2023-04-28T00:15:30;22.80;;;9.60;;
79487;SDS011;68949;53.176;18.088;2023-04-28T00:17:57;24.60;;;10.00;;
79487;SDS011;68949;53.176;18.088;2023-04-28T00:20:23;22.60;;;9.80;;
79487;SDS011;68949;53.176;18.088;2023-04-28T00:22:50;23.00;;;10.30;;
79487;SDS011;68949;53.176;18.088;2023-04-28T00:25:17;25.30;;;9.60;;
79487;SDS011;68949;53.176;18.088;2023-04-28T00:27:43;18.80;;;8.10;;
79487;SDS011;68949;53.176;18.088;2023-04-28T00:30:10;20.90;;;8.80;;
79487;SDS011;68949;53.176;18.088;2023-04-28T00:32:37;20.60;;;9.10;;
79487;SDS011;68949;53.176;18.088;2023-04-28T00:35:04;21.00;;;8.90;;
79487;SDS011;68949;53.176;18.088;2023-04-28T00:37:35;23.40;;;9.70;;
79487;SDS011;68949;53.176;18.088;2023-04-28T00:40:03;21.30;;;8.70;;
79487;SDS011;68949;53.176;18.088;2023-04-28T00:42:30;22.90;;;9.60;;
79487;SDS011;68949;53.176;18.088;2023-04-28T00:44:59;23.40;;;9.90;;
79487;SDS011;68949;53.176;18.088;2023-04-28T00:47:36;22.50;;;9.00;;
79487;SDS011;68949;53.176;18.088;2023-04-28T00:50:04;22.70;;;9.20;;
79487;SDS011;68949;53.176;18.088;2023-04-28T00:52:31;21.00;;;9.10;;
79487;SDS011;68949;53.176;18.088;2023-04-28T00:54:58;18.70;;;9.80;;
79487;SDS011;68949;53.176;18.088;2023-04-28T00:57:25;19.50;;;8.30;;
79487;SDS011;68949;53.176;18.088;2023-04-28T00:59:52;21.50;;;7.60;;
79487;SDS011;68949;53.176;18.088;2023-04-28T01:02:19;18.40;;;8.20;;
79487;SDS011;68949;53.176;18.088;2023-04-28T01:04:46;21.50;;;9.20;;
79487;SDS011;68949;53.176;18.088;2023-04-28T01:07:13;23.00;;;8.50;;
79487;SDS011;68949;53.176;18.088;2023-04-28T01:09:40;17.90;;;7.80;;
79487;SDS011;68949;53.176;18.088;2023-04-28T01:12:30;25.20;;;9.10;;
79487;SDS011;68949;53.176;18.088;2023-04-28T01:14:58;17.40;;;7.40;;
79487;SDS011;68949;53.176;18.088;2023-04-28T01:17:27;21.70;;;9.10;;
79487;SDS011;68949;53.176;18.088;2023-04-28T01:19:54;20.70;;;8.50;;
79487;SDS011;68949;53.176;18.088;2023-04-28T01:22:22;23.60;;;8.50;;
79487;SDS011;68949;53.176;18.088;2023-04-28T01:24:49;20.90;;;8.40;;
79487;SDS011;68949;53.176;18.088;2023-04-28T01:27:17;20.00;;;7.90;;
79487;SDS011;68949;53.176;18.088;2023-04-28T01:29:47;18.40;;;7.90;;
79487;SDS011;68949;53.176;18.088;2023-04-28T01:32:21;19.40;;;7.20;;
79487;SDS011;68949;53.176;18.088;2023-04-28T01:34:50;22.00;;;8.40;;
79487;SDS011;68949;53.176;18.088;2023-04-28T01:37:17;21.20;;;7.90;;
79487;SDS011;68949;53.176;18.088;2023-04-28T01:39:45;17.80;;;7.50;;
79487;SDS011;68949;53.176;18.088;2023-04-28T01:42:12;23.10;;;8.50;;
79487;SDS011;68949;53.176;18.088;2023-04-28T01:44:40;20.80;;;7.90;;
79487;SDS011;68949;53.176;18.088;2023-04-28T01:47:07;17.20;;;7.20;;
79487;SDS011;68949;53.176;18.088;2023-04-28T01:49:35;15.40;;;6.30;;
79487;SDS011;68949;53.176;18.088;2023-04-28T01:52:02;15.40;;;7.00;;
79487;SDS011;68949;53.176;18.088;2023-04-28T01:54:30;13.60;;;5.20;;
79487;SDS011;68949;53.176;18.088;2023-04-28T01:56:57;14.20;;;5.60;;
79487;SDS011;68949;53.176;18.088;2023-04-28T01:59:25;14.60;;;5.20;;
79487;SDS011;68949;53.176;18.088;2023-04-28T02:01:53;16.50;;;5.10;;
79487;SDS011;68949;53.176;18.088;2023-04-28T02:04:21;16.80;;;4.80;;
79487;SDS011;68949;53.176;18.088;2023-04-28T02:06:48;13.80;;;4.70;;
79487;SDS011;68949;53.176;18.088;2023-04-28T02:09:16;10.80;;;4.70;;
79487;SDS011;68949;53.176;18.088;2023-04-28T02:11:43;14.90;;;6.00;;
79487;SDS011;68949;53.176;18.088;2023-04-28T02:14:10;16.20;;;5.20;;
79487;SDS011;68949;53.176;18.088;2023-04-28T02:16:36;14.80;;;6.10;;
79487;SDS011;68949;53.176;18.088;2023-04-28T02:19:03;14.30;;;5.60;;
79487;SDS011;68949;53.176;18.088;2023-04-28T02:21:29;12.50;;;5.10;;
79487;SDS011;68949;53.176;18.088;2023-04-28T02:23:57;15.20;;;4.80;;
79487;SDS011;68949;53.176;18.088;2023-04-28T02:26:24;16.30;;;5.00;;
79487;SDS011;68949;53.176;18.088;2023-04-28T02:28:51;11.70;;;4.30;;
79487;SDS011;68949;53.176;18.088;2023-04-28T02:31:18;11.50;;;3.90;;
79487;SDS011;68949;53.176;18.088;2023-04-28T02:33:45;11.70;;;4.80;;
79487;SDS011;68949;53.176;18.088;2023-04-28T02:36:12;11.90;;;4.50;;
79487;SDS011;68949;53.176;18.088;2023-04-28T02:38:39;10.20;;;3.80;;
79487;SDS011;68949;53.176;18.088;2023-04-28T02:41:07;13.50;;;4.10;;
79487;SDS011;68949;53.176;18.088;2023-04-28T02:43:36;17.50;;;4.10;;
79487;SDS011;68949;53.176;18.088;2023-04-28T02:46:04;10.20;;;3.90;;
79487;SDS011;68949;53.176;18.088;2023-04-28T02:48:31;11.30;;;3.80;;
79487;SDS011;68949;53.176;18.088;2023-04-28T02:51:01;11.50;;;4.30;;
79487;SDS011;68949;53.176;18.088;2023-04-28T02:53:28;10.20;;;4.00;;
79487;SDS011;68949;53.176;18.088;2023-04-28T02:55:55;11.70;;;3.50;;
79487;SDS011;68949;53.176;18.088;2023-04-28T02:58:22;12.90;;;3.90;;
79487;SDS011;68949;53.176;18.088;2023-04-28T03:00:49;9.90;;;3.30;;
79487;SDS011;68949;53.176;18.088;2023-04-28T03:03:16;9.50;;;3.50;;
79487;SDS011;68949;53.176;18.088;2023-04-28T03:05:43;8.80;;;3.40;;
79487;SDS011;68949;53.176;18.088;2023-04-28T03:08:10;11.20;;;3.60;;
79487;SDS011;68949;53.176;18.088;2023-04-28T03:10:36;11.20;;;3.90;;
79487;SDS011;68949;53.176;18.088;2023-04-28T03:13:03;10.60;;;3.90;;
79487;SDS011;68949;53.176;18.088;2023-04-28T03:15:30;10.60;;;4.00;;
79487;SDS011;68949;53.176;18.088;2023-04-28T03:17:58;8.50;;;3.10;;
79487;SDS011;68949;53.176;18.088;2023-04-28T03:20:25;10.70;;;3.40;;
79487;SDS011;68949;53.176;18.088;2023-04-28T03:22:52;11.30;;;3.80;;
79487;SDS011;68949;53.176;18.088;2023-04-28T03:25:19;11.00;;;4.20;;
79487;SDS011;68949;53.176;18.088;2023-04-28T03:27:48;13.90;;;3.60;;
79487;SDS011;68949;53.176;18.088;2023-04-28T03:30:15;10.10;;;3.10;;
79487;SDS011;68949;53.176;18.088;2023-04-28T03:32:42;10.40;;;3.70;;
79487;SDS011;68949;53.176;18.088;2023-04-28T03:35:08;8.30;;;3.00;;
79487;SDS011;68949;53.176;18.088;2023-04-28T03:37:39;10.60;;;3.80;;
79487;SDS011;68949;53.176;18.088;2023-04-28T03:40:06;13.80;;;4.30;;
79487;SDS011;68949;53.176;18.088;2023-04-28T03:42:48;12.50;;;3.90;;
79487;SDS011;68949;53.176;18.088;2023-04-28T03:45:23;10.50;;;4.10;;
79487;SDS011;68949;53.176;18.088;2023-04-28T03:47:51;12.70;;;4.80;;
79487;SDS011;68949;53.176;18.088;2023-04-28T03:50:19;14.40;;;5.50;;
79487;SDS011;68949;53.176;18.088;2023-04-28T03:52:46;12.60;;;5.10;;
79487;SDS011;68949;53.176;18.088;2023-04-28T03:55:13;12.70;;;5.70;;
79487;SDS011;68949;53.176;18.088;2023-04-28T03:57:40;13.10;;;5.00;;
79487;SDS011;68949;53.176;18.088;2023-04-28T04:00:07;14.20;;;5.40;;
79487;SDS011;68949;53.176;18.088;2023-04-28T04:02:43;12.40;;;5.40;;
79487;SDS011;68949;53.176;18.088;2023-04-28T04:05:10;10.50;;;4.70;;
79487;SDS011;68949;53.176;18.088;2023-04-28T04:07:36;10.70;;;4.90;;
79487;SDS011;68949;53.176;18.088;2023-04-28T04:10:07;9.80;;;4.00;;
79487;SDS011;68949;53.176;18.088;2023-04-28T04:12:34;16.00;;;6.90;;
79487;SDS011;68949;53.176;18.088;2023-04-28T04:15:01;15.00;;;6.30;;
79487;SDS011;68949;53.176;18.088;2023-04-28T04:17:29;17.40;;;7.40;;
79487;SDS011;68949;53.176;18.088;2023-04-28T04:19:56;11.60;;;5.30;;
79487;SDS011;68949;53.176;18.088;2023-04-28T04:22:23;15.90;;;7.00;;
79487;SDS011;68949;53.176;18.088;2023-04-28T04:24:50;14.90;;;6.90;;
79487;SDS011;68949;53.176;18.088;2023-04-28T04:27:17;15.80;;;7.80;;
79487;SDS011;68949;53.176;18.088;2023-04-28T04:29:44;18.10;;;7.90;;
79487;SDS011;68949;53.176;18.088;2023-04-28T04:32:12;17.50;;;8.90;;
79487;SDS011;68949;53.176;18.088;2023-04-28T04:34:39;18.90;;;9.30;;
79487;SDS011;68949;53.176;18.088;2023-04-28T04:37:08;18.20;;;9.20;;
79487;SDS011;68949;53.176;18.088;2023-04-28T04:39:37;19.50;;;9.60;;
79487;SDS011;68949;53.176;18.088;2023-04-28T04:42:03;20.00;;;10.00;;
79487;SDS011;68949;53.176;18.088;2023-04-28T04:44:45;24.40;;;10.90;;
79487;SDS011;68949;53.176;18.088;2023-04-28T04:47:19;23.20;;;9.90;;
79487;SDS011;68949;53.176;18.088;2023-04-28T04:49:47;24.40;;;10.80;;
79487;SDS011;68949;53.176;18.088;2023-04-28T04:52:15;21.60;;;10.10;;
79487;SDS011;68949;53.176;18.088;2023-04-28T04:54:42;19.30;;;10.30;;
79487;SDS011;68949;53.176;18.088;2023-04-28T04:57:09;20.30;;;9.80;;
79487;SDS011;68949;53.176;18.088;2023-04-28T04:59:59;21.50;;;10.70;;
79487;SDS011;68949;53.176;18.088;2023-04-28T05:02:26;19.50;;;10.20;;
79487;SDS011;68949;53.176;18.088;2023-04-28T05:04:53;20.30;;;9.70;;
79487;SDS011;68949;53.176;18.088;2023-04-28T05:07:20;19.50;;;9.10;;
79487;SDS011;68949;53.176;18.088;2023-04-28T05:09:47;17.10;;;10.10;;
79487;SDS011;68949;53.176;18.088;2023-04-28T05:12:14;18.50;;;9.00;;
79487;SDS011;68949;53.176;18.088;2023-04-28T05:14:42;16.40;;;9.20;;
79487;SDS011;68949;53.176;18.088;2023-04-28T05:17:09;22.00;;;10.50;;
79487;SDS011;68949;53.176;18.088;2023-04-28T05:19:38;19.00;;;9.00;;
79487;SDS011;68949;53.176;18.088;2023-04-28T05:22:05;16.50;;;9.00;;
79487;SDS011;68949;53.176;18.088;2023-04-28T05:24:35;18.30;;;9.50;;
79487;SDS011;68949;53.176;18.088;2023-04-28T05:27:04;18.20;;;10.10;;
79487;SDS011;68949;53.176;18.088;2023-04-28T05:29:31;19.50;;;10.10;;
79487;SDS011;68949;53.176;18.088;2023-04-28T05:31:58;17.80;;;8.80;;
79487;SDS011;68949;53.176;18.088;2023-04-28T05:34:25;18.30;;;10.00;;
79487;SDS011;68949;53.176;18.088;2023-04-28T05:36:52;16.80;;;9.30;;
79487;SDS011;68949;53.176;18.088;2023-04-28T05:39:20;22.70;;;10.80;;
79487;SDS011;68949;53.176;18.088;2023-04-28T05:41:47;18.40;;;8.80;;
79487;SDS011;68949;53.176;18.088;2023-04-28T05:44:13;17.20;;;8.70;;
79487;SDS011;68949;53.176;18.088;2023-04-28T05:46:40;20.60;;;9.70;;
79487;SDS011;68949;53.176;18.088;2023-04-28T05:49:08;21.70;;;9.30;;
79487;SDS011;68949;53.176;18.088;2023-04-28T05:51:37;17.60;;;8.80;;
79487;SDS011;68949;53.176;18.088;2023-04-28T05:54:04;18.70;;;8.70;;
79487;SDS011;68949;53.176;18.088;2023-04-28T05:56:34;19.50;;;8.80;;
79487;SDS011;68949;53.176;18.088;2023-04-28T05:59:01;17.80;;;9.30;;
79487;SDS011;68949;53.176;18.088;2023-04-28T06:01:30;19.60;;;9.20;;
79487;SDS011;68949;53.176;18.088;2023-04-28T06:03:57;20.20;;;8.80;;
79487;SDS011;68949;53.176;18.088;2023-04-28T06:06:25;17.40;;;8.30;;
79487;SDS011;68949;53.176;18.088;2023-04-28T06:08:54;15.10;;;6.70;;
79487;SDS011;68949;53.176;18.088;2023-04-28T06:11:21;17.00;;;7.30;;
79487;SDS011;68949;53.176;18.088;2023-04-28T06:13:49;16.50;;;7.20;;
79487;SDS011;68949;53.176;18.088;2023-04-28T06:16:18;15.80;;;7.50;;
79487;SDS011;68949;53.176;18.088;2023-04-28T06:18:44;12.20;;;5.70;;
79487;SDS011;68949;53.176;18.088;2023-04-28T06:21:11;14.40;;;6.20;;
79487;SDS011;68949;53.176;18.088;2023-04-28T06:23:38;12.30;;;5.40;;
79487;SDS011;68949;53.176;18.088;2023-04-28T06:26:06;12.50;;;6.30;;
79487;SDS011;68949;53.176;18.088;2023-04-28T06:28:33;12.90;;;6.30;;
79487;SDS011;68949;53.176;18.088;2023-04-28T06:31:00;13.10;;;6.30;;
79487;SDS011;68949;53.176;18.088;2023-04-28T06:33:27;15.20;;;6.60;;
79487;SDS011;68949;53.176;18.088;2023-04-28T06:35:53;16.20;;;6.90;;
79487;SDS011;68949;53.176;18.088;2023-04-28T06:38:20;14.40;;;5.40;;
79487;SDS011;68949;53.176;18.088;2023-04-28T06:40:48;14.20;;;6.30;;
79487;SDS011;68949;53.176;18.088;2023-04-28T06:43:15;15.60;;;7.00;;
79487;SDS011;68949;53.176;18.088;2023-04-28T06:45:55;14.70;;;6.40;;
79487;SDS011;68949;53.176;18.088;2023-04-28T06:48:25;12.60;;;5.90;;
79487;SDS011;68949;53.176;18.088;2023-04-28T06:50:51;14.60;;;5.70;;
79487;SDS011;68949;53.176;18.088;2023-04-28T06:53:18;12.90;;;6.20;;
79487;SDS011;68949;53.176;18.088;2023-04-28T06:55:45;14.00;;;6.90;;
79487;SDS011;68949;53.176;18.088;2023-04-28T06:58:12;14.60;;;6.40;;
79487;SDS011;68949;53.176;18.088;2023-04-28T07:00:38;12.20;;;5.60;;
79487;SDS011;68949;53.176;18.088;2023-04-28T07:03:05;10.50;;;4.50;;
79487;SDS011;68949;53.176;18.088;2023-04-28T07:05:32;14.30;;;6.00;;
79487;SDS011;68949;53.176;18.088;2023-04-28T07:07:59;14.00;;;6.30;;
79487;SDS011;68949;53.176;18.088;2023-04-28T07:10:26;12.20;;;5.60;;
79487;SDS011;68949;53.176;18.088;2023-04-28T07:12:53;14.40;;;5.20;;
79487;SDS011;68949;53.176;18.088;2023-04-28T07:15:19;17.20;;;6.00;;
79487;SDS011;68949;53.176;18.088;2023-04-28T07:17:46;9.40;;;4.90;;
79487;SDS011;68949;53.176;18.088;2023-04-28T07:20:13;8.30;;;4.10;;
79487;SDS011;68949;53.176;18.088;2023-04-28T07:22:40;11.90;;;4.10;;
79487;SDS011;68949;53.176;18.088;2023-04-28T07:25:07;10.50;;;4.10;;
79487;SDS011;68949;53.176;18.088;2023-04-28T07:27:34;9.30;;;3.30;;
79487;SDS011;68949;53.176;18.088;2023-04-28T07:30:02;9.10;;;2.80;;
79487;SDS011;68949;53.176;18.088;2023-04-28T07:32:29;10.30;;;3.50;;
79487;SDS011;68949;53.176;18.088;2023-04-28T07:34:56;7.70;;;2.10;;
79487;SDS011;68949;53.176;18.088;2023-04-28T07:37:22;6.60;;;2.00;;
79487;SDS011;68949;53.176;18.088;2023-04-28T07:39:49;8.50;;;2.30;;
79487;SDS011;68949;53.176;18.088;2023-04-28T07:42:16;6.50;;;2.60;;
79487;SDS011;68949;53.176;18.088;2023-04-28T07:44:44;7.90;;;2.40;;
79487;SDS011;68949;53.176;18.088;2023-04-28T07:47:11;8.00;;;2.00;;
79487;SDS011;68949;53.176;18.088;2023-04-28T07:49:38;6.90;;;2.10;;
79487;SDS011;68949;53.176;18.088;2023-04-28T07:52:04;3.50;;;1.00;;
79487;SDS011;68949;53.176;18.088;2023-04-28T07:54:31;5.30;;;1.30;;
79487;SDS011;68949;53.176;18.088;2023-04-28T07:56:58;5.00;;;1.40;;
79487;SDS011;68949;53.176;18.088;2023-04-28T07:59:25;4.80;;;1.10;;
79487;SDS011;68949;53.176;18.088;2023-04-28T08:01:52;6.10;;;1.80;;
79487;SDS011;68949;53.176;18.088;2023-04-28T08:04:18;4.40;;;1.20;;
79487;SDS011;68949;53.176;18.088;2023-04-28T08:06:45;5.30;;;1.60;;
79487;SDS011;68949;53.176;18.088;2023-04-28T08:09:12;4.30;;;1.00;;
79487;SDS011;68949;53.176;18.088;2023-04-28T08:11:39;4.20;;;1.10;;
79487;SDS011;68949;53.176;18.088;2023-04-28T08:14:05;5.10;;;1.20;;
79487;SDS011;68949;53.176;18.088;2023-04-28T08:16:32;6.10;;;1.20;;
79487;SDS011;68949;53.176;18.088;2023-04-28T08:19:02;5.00;;;0.80;;
79487;SDS011;68949;53.176;18.088;2023-04-28T08:21:28;8.90;;;1.10;;
79487;SDS011;68949;53.176;18.088;2023-04-28T08:23:55;3.30;;;0.70;;
79487;SDS011;68949;53.176;18.088;2023-04-28T08:26:22;3.10;;;0.70;;
79487;SDS011;68949;53.176;18.088;2023-04-28T08:28:50;3.80;;;0.70;;
79487;SDS011;68949;53.176;18.088;2023-04-28T08:31:17;3.60;;;0.80;;
79487;SDS011;68949;53.176;18.088;2023-04-28T08:33:44;3.60;;;0.60;;
79487;SDS011;68949;53.176;18.088;2023-04-28T08:36:13;3.60;;;0.70;;
79487;SDS011;68949;53.176;18.088;2023-04-28T08:38:40;4.00;;;0.60;;
79487;SDS011;68949;53.176;18.088;2023-04-28T08:41:07;4.20;;;0.60;;
79487;SDS011;68949;53.176;18.088;2023-04-28T08:43:34;3.30;;;0.80;;
79487;SDS011;68949;53.176;18.088;2023-04-28T08:46:06;4.20;;;0.90;;
79487;SDS011;68949;53.176;18.088;2023-04-28T08:48:41;3.70;;;0.70;;
79487;SDS011;68949;53.176;18.088;2023-04-28T08:51:15;4.70;;;1.20;;
79487;SDS011;68949;53.176;18.088;2023-04-28T08:53:54;4.60;;;0.90;;
79487;SDS011;68949;53.176;18.088;2023-04-28T08:56:26;3.90;;;0.90;;
79487;SDS011;68949;53.176;18.088;2023-04-28T08:59:00;4.50;;;0.80;;
79487;SDS011;68949;53.176;18.088;2023-04-28T09:01:30;2.60;;;0.70;;
79487;SDS011;68949;53.176;18.088;2023-04-28T09:04:00;5.10;;;1.20;;
79487;SDS011;68949;53.176;18.088;2023-04-28T09:06:35;8.00;;;1.40;;
79487;SDS011;68949;53.176;18.088;2023-04-28T09:09:28;3.40;;;0.80;;
79487;SDS011;68949;53.176;18.088;2023-04-28T09:14:30;4.00;;;0.90;;
79487;SDS011;68949;53.176;18.088;2023-04-28T09:17:12;3.80;;;1.10;;
79487;SDS011;68949;53.176;18.088;2023-04-28T09:19:41;4.30;;;1.00;;
79487;SDS011;68949;53.176;18.088;2023-04-28T09:22:08;5.10;;;1.20;;
79487;SDS011;68949;53.176;18.088;2023-04-28T09:24:37;4.50;;;1.10;;
79487;SDS011;68949;53.176;18.088;2023-04-28T09:27:09;3.70;;;1.00;;
79487;SDS011;68949;53.176;18.088;2023-04-28T09:29:52;6.00;;;1.30;;
79487;SDS011;68949;53.176;18.088;2023-04-28T09:32:23;3.40;;;0.90;;
79487;SDS011;68949;53.176;18.088;2023-04-28T09:34:53;4.90;;;1.10;;
79487;SDS011;68949;53.176;18.088;2023-04-28T09:37:26;4.70;;;1.20;;
79487;SDS011;68949;53.176;18.088;2023-04-28T09:40:01;3.30;;;1.10;;
79487;SDS011;68949;53.176;18.088;2023-04-28T09:45:06;3.90;;;1.20;;
79487;SDS011;68949;53.176;18.088;2023-04-28T09:47:42;5.10;;;1.10;;
79487;SDS011;68949;53.176;18.088;2023-04-28T09:50:12;5.30;;;1.30;;
79487;SDS011;68949;53.176;18.088;2023-04-28T09:52:42;4.20;;;1.20;;
79487;SDS011;68949;53.176;18.088;2023-04-28T09:55:11;4.50;;;1.40;;
79487;SDS011;68949;53.176;18.088;2023-04-28T09:57:38;4.70;;;1.40;;
79487;SDS011;68949;53.176;18.088;2023-04-28T10:00:07;4.80;;;1.50;;
79487;SDS011;68949;53.176;18.088;2023-04-28T10:02:36;6.20;;;1.50;;
79487;SDS011;68949;53.176;18.088;2023-04-28T10:05:04;5.50;;;1.30;;
79487;SDS011;68949;53.176;18.088;2023-04-28T10:07:34;5.20;;;1.30;;
79487;SDS011;68949;53.176;18.088;2023-04-28T10:10:02;4.20;;;1.40;;
79487;SDS011;68949;53.176;18.088;2023-04-28T10:12:31;3.50;;;1.10;;
79487;SDS011;68949;53.176;18.088;2023-04-28T10:14:59;4.40;;;1.00;;
79487;SDS011;68949;53.176;18.088;2023-04-28T10:17:27;5.60;;;1.30;;
79487;SDS011;68949;53.176;18.088;2023-04-28T10:19:54;4.60;;;1.60;;
79487;SDS011;68949;53.176;18.088;2023-04-28T10:22:46;4.30;;;1.10;;
79487;SDS011;68949;53.176;18.088;2023-04-28T10:25:30;3.60;;;1.10;;
79487;SDS011;68949;53.176;18.088;2023-04-28T10:28:05;4.50;;;1.30;;
79487;SDS011;68949;53.176;18.088;2023-04-28T10:30:35;4.70;;;1.30;;
79487;SDS011;68949;53.176;18.088;2023-04-28T10:35:39;4.80;;;1.10;;
79487;SDS011;68949;53.176;18.088;2023-04-28T10:38:16;5.50;;;1.50;;
79487;SDS011;68949;53.176;18.088;2023-04-28T10:40:46;4.90;;;1.00;;
79487;SDS011;68949;53.176;18.088;2023-04-28T10:46:03;4.00;;;1.00;;
79487;SDS011;68949;53.176;18.088;2023-04-28T10:58:46;3.40;;;1.10;;
79487;SDS011;68949;53.176;18.088;2023-04-28T11:06:40;4.30;;;1.40;;
79487;SDS011;68949;53.176;18.088;2023-04-28T11:11:38;4.30;;;1.00;;
79487;SDS011;68949;53.176;18.088;2023-04-28T11:17:00;5.10;;;1.50;;
79487;SDS011;68949;53.176;18.088;2023-04-28T11:19:51;4.40;;;1.40;;
79487;SDS011;68949;53.176;18.088;2023-04-28T11:22:21;4.20;;;1.10;;
79487;SDS011;68949;53.176;18.088;2023-04-28T11:24:56;11.50;;;1.80;;
79487;SDS011;68949;53.176;18.088;2023-04-28T11:27:26;4.90;;;1.30;;
79487;SDS011;68949;53.176;18.088;2023-04-28T11:30:19;4.30;;;1.40;;
79487;SDS011;68949;53.176;18.088;2023-04-28T11:32:48;2.80;;;1.00;;
79487;SDS011;68949;53.176;18.088;2023-04-28T11:35:16;4.30;;;1.20;;
79487;SDS011;68949;53.176;18.088;2023-04-28T11:37:42;6.70;;;1.20;;
79487;SDS011;68949;53.176;18.088;2023-04-28T11:40:10;4.30;;;1.20;;
79487;SDS011;68949;53.176;18.088;2023-04-28T11:42:49;5.60;;;1.50;;
79487;SDS011;68949;53.176;18.088;2023-04-28T11:45:17;4.80;;;1.40;;
79487;SDS011;68949;53.176;18.088;2023-04-28T11:47:43;3.70;;;1.10;;
79487;SDS011;68949;53.176;18.088;2023-04-28T11:50:10;4.00;;;1.40;;
79487;SDS011;68949;53.176;18.088;2023-04-28T11:52:48;4.80;;;1.40;;
79487;SDS011;68949;53.176;18.088;2023-04-28T11:55:16;6.60;;;1.30;;
79487;SDS011;68949;53.176;18.088;2023-04-28T11:57:43;4.50;;;1.10;;
79487;SDS011;68949;53.176;18.088;2023-04-28T12:00:13;4.70;;;1.20;;
79487;SDS011;68949;53.176;18.088;2023-04-28T12:02:45;3.50;;;1.20;;
79487;SDS011;68949;53.176;18.088;2023-04-28T12:05:11;5.30;;;1.40;;
79487;SDS011;68949;53.176;18.088;2023-04-28T12:07:42;4.10;;;0.90;;
79487;SDS011;68949;53.176;18.088;2023-04-28T12:12:39;4.30;;;1.30;;
79487;SDS011;68949;53.176;18.088;2023-04-28T12:15:08;4.50;;;1.20;;
79487;SDS011;68949;53.176;18.088;2023-04-28T12:17:39;5.10;;;1.20;;
79487;SDS011;68949;53.176;18.088;2023-04-28T12:20:11;5.10;;;1.50;;
79487;SDS011;68949;53.176;18.088;2023-04-28T12:23:01;4.10;;;1.30;;
79487;SDS011;68949;53.176;18.088;2023-04-28T12:25:28;4.90;;;1.20;;
79487;SDS011;68949;53.176;18.088;2023-04-28T12:28:03;4.00;;;1.00;;
79487;SDS011;68949;53.176;18.088;2023-04-28T12:30:32;4.40;;;1.30;;
79487;SDS011;68949;53.176;18.088;2023-04-28T12:33:00;5.50;;;1.40;;
79487;SDS011;68949;53.176;18.088;2023-04-28T12:35:28;3.60;;;1.10;;
79487;SDS011;68949;53.176;18.088;2023-04-28T12:37:56;4.40;;;1.10;;
79487;SDS011;68949;53.176;18.088;2023-04-28T12:40:24;4.60;;;1.20;;
79487;SDS011;68949;53.176;18.088;2023-04-28T12:42:51;3.70;;;0.90;;
79487;SDS011;68949;53.176;18.088;2023-04-28T12:45:18;5.30;;;1.20;;
79487;SDS011;68949;53.176;18.088;2023-04-28T12:47:45;4.30;;;1.10;;
79487;SDS011;68949;53.176;18.088;2023-04-28T12:50:12;3.90;;;1.20;;
79487;SDS011;68949;53.176;18.088;2023-04-28T12:52:39;5.90;;;1.60;;
79487;SDS011;68949;53.176;18.088;2023-04-28T12:55:07;8.10;;;1.50;;
79487;SDS011;68949;53.176;18.088;2023-04-28T12:57:34;4.70;;;1.60;;
79487;SDS011;68949;53.176;18.088;2023-04-28T13:00:02;4.70;;;1.60;;
79487;SDS011;68949;53.176;18.088;2023-04-28T13:02:29;6.20;;;1.00;;
79487;SDS011;68949;53.176;18.088;2023-04-28T13:04:56;4.80;;;1.60;;
79487;SDS011;68949;53.176;18.088;2023-04-28T13:07:22;4.00;;;1.10;;
79487;SDS011;68949;53.176;18.088;2023-04-28T13:09:49;4.40;;;0.80;;
79487;SDS011;68949;53.176;18.088;2023-04-28T13:12:16;4.30;;;1.30;;
79487;SDS011;68949;53.176;18.088;2023-04-28T13:14:42;7.10;;;1.60;;
79487;SDS011;68949;53.176;18.088;2023-04-28T13:17:09;5.80;;;1.60;;
79487;SDS011;68949;53.176;18.088;2023-04-28T13:19:37;4.40;;;1.60;;
79487;SDS011;68949;53.176;18.088;2023-04-28T13:22:05;6.70;;;2.00;;
79487;SDS011;68949;53.176;18.088;2023-04-28T13:24:32;6.10;;;1.80;;
79487;SDS011;68949;53.176;18.088;2023-04-28T13:26:59;7.40;;;2.20;;
79487;SDS011;68949;53.176;18.088;2023-04-28T13:29:26;5.20;;;2.10;;
79487;SDS011;68949;53.176;18.088;2023-04-28T13:31:53;5.90;;;2.20;;
79487;SDS011;68949;53.176;18.088;2023-04-28T13:34:20;5.80;;;2.20;;
79487;SDS011;68949;53.176;18.088;2023-04-28T13:36:46;5.80;;;2.00;;
79487;SDS011;68949;53.176;18.088;2023-04-28T13:39:16;4.30;;;1.10;;
79487;SDS011;68949;53.176;18.088;2023-04-28T13:41:45;7.00;;;2.00;;
79487;SDS011;68949;53.176;18.088;2023-04-28T13:44:12;6.80;;;2.30;;
79487;SDS011;68949;53.176;18.088;2023-04-28T13:46:38;5.00;;;2.20;;
79487;SDS011;68949;53.176;18.088;2023-04-28T13:49:06;7.00;;;2.30;;
79487;SDS011;68949;53.176;18.088;2023-04-28T13:51:34;6.20;;;2.30;;
79487;SDS011;68949;53.176;18.088;2023-04-28T13:54:02;8.30;;;2.90;;
79487;SDS011;68949;53.176;18.088;2023-04-28T13:56:34;6.90;;;2.40;;
79487;SDS011;68949;53.176;18.088;2023-04-28T13:59:02;6.70;;;2.80;;
79487;SDS011;68949;53.176;18.088;2023-04-28T14:01:29;6.20;;;2.80;;
79487;SDS011;68949;53.176;18.088;2023-04-28T14:03:56;6.30;;;2.70;;
79487;SDS011;68949;53.176;18.088;2023-04-28T14:06:22;6.00;;;2.40;;
79487;SDS011;68949;53.176;18.088;2023-04-28T14:08:49;5.10;;;2.30;;
79487;SDS011;68949;53.176;18.088;2023-04-28T14:11:16;8.50;;;3.30;;
79487;SDS011;68949;53.176;18.088;2023-04-28T14:13:42;8.40;;;3.20;;
79487;SDS011;68949;53.176;18.088;2023-04-28T14:16:10;9.60;;;3.50;;
79487;SDS011;68949;53.176;18.088;2023-04-28T14:18:37;7.50;;;3.20;;
79487;SDS011;68949;53.176;18.088;2023-04-28T14:21:04;10.60;;;3.10;;
79487;SDS011;68949;53.176;18.088;2023-04-28T14:23:33;9.30;;;2.80;;
79487;SDS011;68949;53.176;18.088;2023-04-28T14:26:03;10.50;;;3.30;;
79487;SDS011;68949;53.176;18.088;2023-04-28T14:28:30;7.60;;;3.50;;
79487;SDS011;68949;53.176;18.088;2023-04-28T14:30:56;7.00;;;3.60;;
79487;SDS011;68949;53.176;18.088;2023-04-28T14:33:23;8.70;;;3.60;;
79487;SDS011;68949;53.176;18.088;2023-04-28T14:35:50;8.10;;;3.60;;
79487;SDS011;68949;53.176;18.088;2023-04-28T14:38:16;8.90;;;3.80;;
79487;SDS011;68949;53.176;18.088;2023-04-28T14:40:44;6.90;;;2.80;;
79487;SDS011;68949;53.176;18.088;2023-04-28T14:43:10;8.70;;;3.10;;
79487;SDS011;68949;53.176;18.088;2023-04-28T14:45:37;9.30;;;3.60;;
79487;SDS011;68949;53.176;18.088;2023-04-28T14:48:04;5.90;;;3.20;;
79487;SDS011;68949;53.176;18.088;2023-04-28T14:50:32;11.90;;;4.00;;
79487;SDS011;68949;53.176;18.088;2023-04-28T14:52:59;7.40;;;3.40;;
79487;SDS011;68949;53.176;18.088;2023-04-28T14:55:31;8.80;;;3.50;;
79487;SDS011;68949;53.176;18.088;2023-04-28T14:57:58;8.70;;;3.20;;
79487;SDS011;68949;53.176;18.088;2023-04-28T15:00:25;8.50;;;4.00;;
79487;SDS011;68949;53.176;18.088;2023-04-28T15:02:52;8.00;;;3.30;;
79487;SDS011;68949;53.176;18.088;2023-04-28T15:05:18;7.70;;;3.00;;
79487;SDS011;68949;53.176;18.088;2023-04-28T15:07:45;6.10;;;2.50;;
79487;SDS011;68949;53.176;18.088;2023-04-28T15:10:12;8.20;;;3.60;;